Time;durP1;ratioP1;P1;durP2;ratioP2;P2;SDS_P1;SDS_P2;PMS_P1;PMS_P2;Temp;Humidity;BMP_temperature;BMP_pressure;BME280_temperature;BME280_humidity;BME280_pressure;Samples;Min_cycle;Max_cycle;Signal;HPM_P1;HPM_P2
2023/01/07 00:01:34;;;;;;;23.15;7.35;;;;;;;-13.91;100.00;100889.56;1669229;85;21009;-59
2023/01/07 00:04:02;;;;;;;17.90;6.30;;;;;;;-13.95;100.00;100892.95;1668403;85;21621;-61
2023/01/07 00:06:33;;;;;;;14.45;4.03;;;;;;;-14.00;100.00;100897.58;1668637;85;20921;-58
2023/01/07 00:09:01;;;;;;;15.60;6.17;;;;;;;-14.02;100.00;100900.92;1668028;85;20949;-60
2023/01/07 00:11:31;;;;;;;13.25;4.15;;;;;;;-14.05;100.00;100906.81;1668783;85;20957;-60
2023/01/07 00:13:59;;;;;;;13.10;4.12;;;;;;;-14.13;100.00;100907.27;1668435;85;21009;-58
2023/01/07 00:16:29;;;;;;;10.65;4.08;;;;;;;-14.17;100.00;100910.64;1668622;85;22116;-58
2023/01/07 00:18:59;;;;;;;12.33;4.35;;;;;;;-14.19;100.00;100926.54;1668796;85;20992;-58
2023/01/07 00:21:27;;;;;;;11.78;4.22;;;;;;;-14.23;100.00;100937.00;1668510;85;21069;-60
2023/01/07 00:23:56;;;;;;;6.20;2.90;;;;;;;-14.27;100.00;100933.68;1667582;85;21088;-60
2023/01/07 00:26:25;;;;;;;12.20;3.87;;;;;;;-14.27;100.00;100939.11;1667935;85;21363;-59
2023/01/07 00:28:53;;;;;;;11.18;3.85;;;;;;;-14.32;100.00;100947.88;1667681;85;21200;-58
2023/01/07 00:31:23;;;;;;;7.70;3.45;;;;;;;-14.35;100.00;100955.44;1667148;85;21017;-59
2023/01/07 00:36:18;;;;;;;8.25;3.17;;;;;;;-14.42;100.00;100950.05;1667850;85;20969;-58
2023/01/07 00:38:45;;;;;;;9.53;3.10;;;;;;;-14.45;100.00;100946.30;1668020;85;21033;-58
2023/01/07 00:41:13;;;;;;;8.40;3.72;;;;;;;-14.46;100.00;100950.91;1667182;85;21299;-62
2023/01/07 00:43:40;;;;;;;12.25;3.67;;;;;;;-14.45;100.00;100961.75;1667211;85;21692;-60
2023/01/07 00:46:08;;;;;;;8.30;3.35;;;;;;;-14.48;100.00;100958.41;1667444;85;21552;-59
2023/01/07 00:48:36;;;;;;;7.65;3.30;;;;;;;-14.48;100.00;100962.16;1652306;85;21394;-58
2023/01/07 00:51:03;;;;;;;6.60;2.70;;;;;;;-14.47;100.00;100959.23;1668073;85;21090;-58
2023/01/07 00:53:32;;;;;;;9.45;3.62;;;;;;;-14.52;100.00;100960.98;1666954;85;22153;-59
2023/01/07 00:56:00;;;;;;;12.37;3.90;;;;;;;-14.57;100.00;100954.75;1667629;85;21064;-60
2023/01/07 00:58:27;;;;;;;6.72;2.47;;;;;;;-14.57;100.00;100953.50;1667848;85;21079;-60
2023/01/07 01:00:55;;;;;;;8.18;2.98;;;;;;;-14.59;100.00;100950.16;1667858;85;21569;-60
2023/01/07 01:03:23;;;;;;;10.00;3.35;;;;;;;-14.60;100.00;100953.51;1666924;85;21566;-62
2023/01/07 01:05:50;;;;;;;10.78;3.37;;;;;;;-14.60;100.00;100957.26;1662649;86;21888;-61
2023/01/07 01:08:19;;;;;;;11.57;3.30;;;;;;;-14.61;100.00;100969.80;1663141;86;22532;-61
2023/01/07 01:10:46;;;;;;;11.90;4.37;;;;;;;-14.64;100.00;100977.31;1663452;86;21067;-60
2023/01/07 01:13:16;;;;;;;13.50;3.98;;;;;;;-14.67;100.00;100983.58;1662516;86;20997;-62
2023/01/07 01:15:44;;;;;;;9.90;3.00;;;;;;;-14.71;100.00;100989.01;1663163;86;21513;-59
2023/01/07 01:18:13;;;;;;;8.03;3.12;;;;;;;-14.73;100.00;100985.70;1663298;86;21703;-60
2023/01/07 01:20:40;;;;;;;12.98;3.17;;;;;;;-14.76;100.00;100989.45;1662599;86;21888;-58
2023/01/07 01:23:08;;;;;;;7.97;2.42;;;;;;;-14.79;100.00;100988.21;1662047;86;21015;-60
2023/01/07 01:25:37;;;;;;;10.58;3.08;;;;;;;-14.81;100.00;100991.98;1662882;86;20993;-58
2023/01/07 01:28:04;;;;;;;9.05;3.35;;;;;;;-14.82;100.00;100996.55;1662528;86;21015;-59
2023/01/07 01:30:34;;;;;;;8.13;2.62;;;;;;;-14.85;100.00;100996.55;1662813;86;21237;-59
2023/01/07 01:33:01;;;;;;;8.93;2.92;;;;;;;-14.87;100.00;101006.17;1663302;86;20973;-59
2023/01/07 01:35:29;;;;;;;7.83;3.33;;;;;;;-14.94;100.00;101004.09;1662549;86;21029;-59
2023/01/07 01:37:59;;;;;;;6.30;2.55;;;;;;;-14.98;100.00;101000.77;1662901;86;21142;-61
2023/01/07 01:40:29;;;;;;;5.12;2.17;;;;;;;-15.01;100.00;101005.77;1663233;86;21068;-58
2023/01/07 01:42:56;;;;;;;10.75;3.30;;;;;;;-15.02;100.00;101005.37;1663359;86;21214;-58
2023/01/07 01:45:23;;;;;;;7.08;2.55;;;;;;;-15.04;100.00;100999.52;1662633;86;21009;-58
2023/01/07 01:47:58;;;;;;;8.23;3.30;;;;;;;-15.06;100.00;101006.22;1662853;86;21020;-59
2023/01/07 01:50:42;;;;;;;8.03;3.27;;;;;;;-15.07;100.00;101009.56;1662452;86;21095;-59
2023/01/07 01:53:17;;;;;;;8.15;2.60;;;;;;;-15.08;100.00;101010.37;1663348;86;21143;-59
2023/01/07 01:55:49;;;;;;;14.73;3.33;;;;;;;-15.10;100.00;101009.56;1661644;86;22319;-58
2023/01/07 01:58:21;;;;;;;13.00;3.33;;;;;;;-15.11;100.00;101011.66;1647312;86;21033;-61
2023/01/07 02:00:48;;;;;;;8.80;3.33;;;;;;;-15.14;100.00;101020.41;1663037;86;21425;-58
2023/01/07 02:03:18;;;;;;;10.70;2.45;;;;;;;-15.18;100.00;101020.00;1662539;86;21048;-60
2023/01/07 02:05:47;;;;;;;8.68;3.72;;;;;;;-15.21;100.00;101018.33;1668364;85;20913;-58
2023/01/07 02:08:20;;;;;;;9.23;2.33;;;;;;;-15.25;100.00;101021.67;1668355;85;21230;-59
2023/01/07 02:10:45;;;;;;;9.65;3.87;;;;;;;-15.25;100.00;101023.34;1667795;85;21492;-58
2023/01/07 02:13:41;;;;;;;8.63;2.98;;;;;;;-15.25;100.00;101033.34;1668277;85;20992;-59
2023/01/07 02:16:17;;;;;;;8.23;3.08;;;;;;;-15.23;100.00;101040.41;1667469;85;21055;-60
2023/01/07 02:18:55;;;;;;;8.98;2.55;;;;;;;-15.27;100.00;101045.82;1668311;85;21041;-59
2023/01/07 02:21:59;;;;;;;8.28;3.00;;;;;;;-15.27;100.00;101045.82;1668241;85;21437;-61
2023/01/07 02:24:41;;;;;;;7.87;2.95;;;;;;;-15.27;100.00;101049.99;1668158;85;21045;-57
2023/01/07 02:27:35;;;;;;;7.28;3.00;;;;;;;-15.31;100.00;101050.41;1667840;85;21333;-61
2023/01/07 02:30:27;;;;;;;9.75;2.70;;;;;;;-15.37;100.00;101044.19;1688788;84;21720;-59
2023/01/07 02:33:28;;;;;;;8.88;2.65;;;;;;;-15.37;100.00;101049.19;1688770;84;21311;-58
2023/01/07 02:36:09;;;;;;;10.13;2.92;;;;;;;-15.36;100.00;101048.34;1688584;84;22444;-59
2023/01/07 02:38:45;;;;;;;13.62;4.35;;;;;;;-15.38;100.00;101042.92;1688056;84;21601;-60
2023/01/07 02:41:21;;;;;;;10.25;2.87;;;;;;;-15.41;100.00;101046.69;1689359;84;21055;-61
2023/01/07 02:43:56;;;;;;;8.48;2.58;;;;;;;-15.42;100.00;101049.58;1689745;84;21035;-58
2023/01/07 02:46:42;;;;;;;12.10;2.67;;;;;;;-15.42;100.00;101057.50;1670405;84;21061;-59
2023/01/07 02:49:12;;;;;;;10.45;2.65;;;;;;;-15.41;100.00;101057.94;1688565;84;21893;-62
2023/01/07 02:51:39;;;;;;;7.78;2.45;;;;;;;-15.44;100.00;101064.19;1688794;84;21502;-60
2023/01/07 02:54:11;;;;;;;9.30;3.00;;;;;;;-15.47;100.00;101055.01;1689288;84;21036;-60
2023/01/07 02:56:53;;;;;;;9.23;3.62;;;;;;;-15.47;100.00;101063.33;1664054;84;21513;-58
2023/01/07 02:59:41;;;;;;;8.98;3.52;;;;;;;-15.48;100.00;101078.34;1689101;84;21369;-59
2023/01/07 03:02:16;;;;;;;10.55;3.50;;;;;;;-15.52;100.00;101083.75;1689578;84;21244;-58
2023/01/07 03:05:12;;;;;;;6.92;2.25;;;;;;;-15.55;100.00;101091.66;1689554;84;21011;-58
2023/01/07 03:08:06;;;;;;;15.80;2.83;;;;;;;-15.56;100.00;101089.58;1688820;84;21020;-61
2023/01/07 03:10:48;;;;;;;8.95;2.92;;;;;;;-15.56;100.00;101090.00;1689509;84;21033;-58
2023/01/07 03:13:22;;;;;;;6.95;2.45;;;;;;;-15.58;100.00;101087.91;1689064;84;21052;-59
2023/01/07 03:16:07;;;;;;;10.88;3.98;;;;;;;-15.60;100.00;101090.83;1689369;84;21216;-61
2023/01/07 03:18:38;;;;;;;8.50;2.98;;;;;;;-15.60;100.00;101085.41;1689342;84;21565;-58
2023/01/07 03:21:10;;;;;;;10.15;2.95;;;;;;;-15.62;100.00;101087.06;1688929;84;21438;-58
2023/01/07 03:23:42;;;;;;;10.40;3.90;;;;;;;-15.66;100.00;101082.93;1664235;84;21930;-60
2023/01/07 03:26:09;;;;;;;9.05;2.77;;;;;;;-15.67;100.00;101087.94;1689329;84;21055;-57
2023/01/07 03:28:40;;;;;;;8.50;3.22;;;;;;;-15.70;100.00;101087.50;1683411;84;21429;-61
2023/01/07 03:31:10;;;;;;;14.65;4.05;;;;;;;-15.71;100.00;101093.34;1675124;85;20906;-58
2023/01/07 03:33:55;;;;;;;8.88;3.17;;;;;;;-15.68;100.00;101099.59;1658394;85;21000;-59
2023/01/07 03:36:26;;;;;;;11.03;2.70;;;;;;;-15.68;100.00;101094.60;1675359;85;20974;-58
2023/01/07 03:38:54;;;;;;;10.63;3.17;;;;;;;-15.68;100.00;101096.23;1674555;85;21041;-58
2023/01/07 03:44:09;;;;;;;10.10;3.33;;;;;;;-15.67;100.00;101109.17;1659592;85;20962;-58
2023/01/07 03:46:36;;;;;;;9.43;3.90;;;;;;;-15.69;100.00;101107.07;1675136;85;20934;-59
2023/01/07 03:49:04;;;;;;;9.53;3.37;;;;;;;-15.71;100.00;101118.33;1675414;85;21449;-61
2023/01/07 03:51:33;;;;;;;10.98;3.45;;;;;;;-15.72;100.00;101124.13;1658617;85;21624;-59
2023/01/07 03:54:00;;;;;;;13.48;3.58;;;;;;;-15.74;100.00;101120.81;1675411;85;22579;-58
2023/01/07 03:56:28;;;;;;;12.75;3.85;;;;;;;-15.75;100.00;101127.89;1674827;85;21027;-61
2023/01/07 03:58:55;;;;;;;10.25;3.30;;;;;;;-15.76;100.00;101129.95;1675004;85;20981;-59
2023/01/07 04:01:23;;;;;;;11.43;3.40;;;;;;;-15.78;100.00;101132.45;1675733;85;20974;-58
2023/01/07 04:03:50;;;;;;;13.98;4.08;;;;;;;-15.78;100.00;101141.63;1675152;85;21511;-59
2023/01/07 04:06:18;;;;;;;12.80;3.83;;;;;;;-15.80;100.00;101141.59;1675335;85;21893;-59
2023/01/07 04:08:47;;;;;;;13.75;3.50;;;;;;;-15.82;100.00;101144.52;1674897;85;21455;-59
2023/01/07 04:11:14;;;;;;;9.65;3.50;;;;;;;-15.84;100.00;101146.58;1674665;85;21326;-58
2023/01/07 04:13:42;;;;;;;12.37;4.00;;;;;;;-15.86;100.00;101152.01;1674408;85;21122;-60
2023/01/07 04:16:09;;;;;;;13.05;3.62;;;;;;;-15.88;100.00;101156.15;1675790;85;22181;-58
2023/01/07 04:18:36;;;;;;;9.75;2.95;;;;;;;-15.87;100.00;101157.42;1673933;85;21153;-60
2023/01/07 04:21:04;;;;;;;9.83;3.70;;;;;;;-15.87;100.00;101154.92;1675194;85;20985;-58
2023/01/07 04:23:35;;;;;;;14.68;3.25;;;;;;;-15.85;100.00;101148.67;1675127;85;21086;-59
2023/01/07 04:26:02;;;;;;;4.90;1.75;;;;;;;-15.86;100.00;101155.34;1674950;85;21855;-58
2023/01/07 04:28:29;;;;;;;8.28;3.00;;;;;;;-15.87;100.00;101157.81;1677940;83;20968;-59
2023/01/07 04:31:00;;;;;;;7.95;3.80;;;;;;;-15.90;100.00;101157.83;1674733;84;21817;-58
2023/01/07 04:33:28;;;;;;;14.05;8.10;;;;;;;-15.92;100.00;101165.71;1675348;85;20874;-60
2023/01/07 04:35:57;;;;;;;20.45;12.03;;;;;;;-15.94;100.00;101169.46;1675002;85;20969;-58
2023/01/07 04:38:25;;;;;;;22.82;12.03;;;;;;;-15.97;100.00;101171.52;1675772;85;21022;-58
2023/01/07 04:40:54;;;;;;;56.33;33.05;;;;;;;-15.98;100.00;101174.86;1675608;85;20969;-58
2023/01/07 04:43:22;;;;;;;17.65;6.62;;;;;;;-15.94;100.00;101174.45;1675568;85;21085;-58
2023/01/07 04:45:49;;;;;;;10.72;3.67;;;;;;;-15.91;100.00;101177.36;1674923;85;20946;-58
2023/01/07 04:48:18;;;;;;;7.20;2.83;;;;;;;-15.90;100.00;101179.88;1675126;85;21477;-58
2023/01/07 04:50:47;;;;;;;9.18;3.15;;;;;;;-15.89;100.00;101183.21;1674902;85;20922;-59
2023/01/07 04:53:14;;;;;;;7.53;2.75;;;;;;;-15.92;100.00;101186.52;1675166;85;21048;-58
2023/01/07 04:55:42;;;;;;;7.85;2.92;;;;;;;-15.92;100.00;101186.94;1675557;85;21276;-60
2023/01/07 04:58:09;;;;;;;6.95;2.67;;;;;;;-15.93;100.00;101192.77;1673926;85;20914;-58
2023/01/07 05:00:37;;;;;;;9.75;3.87;;;;;;;-15.93;100.00;101200.27;1674911;85;20918;-59
2023/01/07 05:03:04;;;;;;;10.05;4.95;;;;;;;-15.95;100.00;101202.31;1675746;85;21108;-58
2023/01/07 05:05:32;;;;;;;13.55;4.47;;;;;;;-15.94;100.00;101205.67;1674148;85;21005;-61
2023/01/07 05:08:00;;;;;;;13.18;5.08;;;;;;;-15.97;100.00;101205.23;1675249;85;23116;-59
2023/01/07 05:10:28;;;;;;;16.45;8.20;;;;;;;-15.99;100.00;101213.13;1674516;85;21771;-61
2023/01/07 05:12:55;;;;;;;11.48;4.47;;;;;;;-16.01;100.00;101214.80;1675086;85;21498;-60
2023/01/07 05:15:23;;;;;;;12.80;4.80;;;;;;;-16.00;100.00;101218.95;1675626;85;21004;-60
2023/01/07 05:17:51;;;;;;;12.58;4.78;;;;;;;-16.00;100.00;101222.70;1659078;85;21086;-60
2023/01/07 05:20:18;;;;;;;18.07;6.28;;;;;;;-16.01;100.00;101233.52;1675270;85;21123;-61
2023/01/07 05:22:46;;;;;;;37.58;14.98;;;;;;;-16.03;100.00;101240.16;1675213;85;21469;-57
2023/01/07 05:25:14;;;;;;;64.27;22.20;;;;;;;-16.03;100.00;101240.16;1675307;85;21048;-59
2023/01/07 05:27:41;;;;;;;25.10;8.28;;;;;;;-16.01;100.00;101247.26;1674753;85;21475;-60
2023/01/07 05:30:10;;;;;;;38.13;12.18;;;;;;;-15.98;100.00;101248.95;1683882;84;21042;-62
2023/01/07 05:32:37;;;;;;;94.40;32.23;;;;;;;-15.85;100.00;101256.08;1694340;84;21162;-58
2023/01/07 05:35:05;;;;;;;126.55;36.25;;;;;;;-15.67;100.00;101259.91;1694315;84;21024;-58
2023/01/07 05:37:33;;;;;;;139.52;39.33;;;;;;;-15.46;100.00;101252.87;1694481;84;21508;-58
2023/01/07 05:40:01;;;;;;;105.22;32.13;;;;;;;-15.20;100.00;101264.20;1693328;84;20984;-60
2023/01/07 05:42:30;;;;;;;74.75;23.35;;;;;;;-14.93;100.00;101267.59;1693783;84;21361;-58
2023/01/07 05:44:57;;;;;;;30.43;10.78;;;;;;;-14.62;100.00;101271.80;1694170;84;21344;-58
2023/01/07 05:47:24;;;;;;;23.85;9.23;;;;;;;-14.25;100.00;101271.73;1694144;84;21084;-58
2023/01/07 05:49:51;;;;;;;15.08;6.33;;;;;;;-13.84;100.00;101275.42;1693203;84;21052;-59
2023/01/07 05:52:20;;;;;;;17.05;8.78;;;;;;;-13.46;100.00;101283.23;1693221;84;22332;-59
2023/01/07 05:54:47;;;;;;;39.50;13.58;;;;;;;-13.04;100.00;101297.63;1694231;84;22270;-58
2023/01/07 05:57:16;;;;;;;31.33;9.85;;;;;;;-12.67;100.00;101304.52;1693791;84;21176;-58
2023/01/07 05:59:45;;;;;;;393.88;93.75;;;;;;;-12.34;100.00;101306.39;1693193;84;20909;-59
2023/01/07 06:02:12;;;;;;;26.50;7.80;;;;;;;-11.91;100.00;101310.59;1693993;84;21341;-61
2023/01/07 06:04:39;;;;;;;12.23;5.12;;;;;;;-11.39;100.00;101310.44;1693250;84;20929;-59
2023/01/07 06:07:07;;;;;;;10.93;3.90;;;;;;;-10.93;100.00;101307.33;1693906;84;21037;-58
2023/01/07 06:09:35;;;;;;;15.55;6.45;;;;;;;-10.44;100.00;101310.39;1693725;84;21437;-59
2023/01/07 06:12:04;;;;;;;20.88;9.10;;;;;;;-10.01;100.00;101317.22;1693434;84;21036;-61
2023/01/07 06:14:31;;;;;;;11.38;5.47;;;;;;;-9.53;100.00;101324.33;1693712;84;21119;-58
2023/01/07 06:17:00;;;;;;;13.72;5.60;;;;;;;-8.94;100.00;101322.70;1693308;84;21020;-58
2023/01/07 06:19:27;;;;;;;11.53;4.78;;;;;;;-8.39;100.00;101342.98;1693907;84;21045;-58
2023/01/07 06:21:55;;;;;;;21.82;8.73;;;;;;;-7.98;100.00;101332.27;1693736;84;21245;-61
2023/01/07 06:24:22;;;;;;;11.83;5.28;;;;;;;-7.59;100.00;101326.59;1693826;84;21592;-58
2023/01/07 06:26:50;;;;;;;11.18;4.60;;;;;;;-7.17;100.00;101332.17;1694527;84;21542;-58
2023/01/07 06:29:17;;;;;;;22.77;10.05;;;;;;;-6.87;100.00;101328.37;1694150;84;20894;-58
2023/01/07 06:31:46;;;;;;;105.20;41.13;;;;;;;-6.58;100.00;101335.55;1693985;84;20981;-60
2023/01/07 06:34:13;;;;;;;17.90;8.48;;;;;;;-6.21;100.00;101339.00;1693543;84;21858;-61
2023/01/07 06:36:40;;;;;;;17.15;7.25;;;;;;;-5.99;100.00;101334.06;1693943;84;21906;-58
2023/01/07 06:39:07;;;;;;;25.43;11.38;;;;;;;-6.08;100.00;101336.91;1694301;84;21514;-58
2023/01/07 06:41:35;;;;;;;17.60;9.00;;;;;;;-5.92;100.00;101341.87;1694070;84;20991;-58
2023/01/07 06:44:03;;;;;;;15.98;8.25;;;;;;;-5.76;100.00;101343.41;1693417;84;21052;-59
2023/01/07 06:46:30;;;;;;;131.10;56.53;;;;;;;-5.67;100.00;101347.76;1692695;84;21771;-59
2023/01/07 06:48:57;;;;;;;17.70;8.88;;;;;;;-5.57;100.00;101342.34;1693959;84;21067;-58
2023/01/07 06:51:24;;;;;;;26.95;14.33;;;;;;;-5.65;100.00;101343.44;1693868;84;21025;-59
2023/01/07 06:53:52;;;;;;;18.27;8.93;;;;;;;-5.55;100.00;101346.95;1692936;84;21067;-59
2023/01/07 06:56:19;;;;;;;16.80;9.00;;;;;;;-5.21;100.00;101346.14;1693740;84;20981;-59
2023/01/07 06:58:47;;;;;;;9.80;5.45;;;;;;;-4.85;100.00;101355.00;1692641;84;21853;-60
2023/01/07 07:01:14;;;;;;;14.23;7.55;;;;;;;-5.00;100.00;101352.58;1693683;84;21087;-59
2023/01/07 07:03:42;;;;;;;12.33;5.75;;;;;;;-4.86;100.00;101350.36;1693823;84;21048;-60
2023/01/07 07:06:10;;;;;;;11.70;6.67;;;;;;;-4.43;100.00;101348.73;1693466;84;21035;-64
2023/01/07 07:08:37;;;;;;;10.08;5.28;;;;;;;-4.21;100.00;101348.24;1692876;84;21896;-61
2023/01/07 07:11:04;;;;;;;10.65;5.20;;;;;;;-4.08;100.00;101350.32;1693430;84;22521;-62
2023/01/07 07:13:33;;;;;;;9.18;4.97;;;;;;;-3.96;100.00;101358.73;1693550;84;21378;-61
2023/01/07 07:16:00;;;;;;;9.85;4.70;;;;;;;-4.00;100.00;101350.83;1693954;84;21345;-59
2023/01/07 07:18:27;;;;;;;10.40;5.20;;;;;;;-3.94;100.00;101360.33;1693205;84;21019;-61
2023/01/07 07:20:57;;;;;;;14.55;6.97;;;;;;;-3.75;100.00;101365.91;1693095;84;20999;-58
2023/01/07 07:23:24;;;;;;;13.22;7.53;;;;;;;-3.67;100.00;101368.55;1693517;84;21332;-61
2023/01/07 07:26:09;;;;;;;10.65;5.90;;;;;;;-3.47;100.00;101365.59;1751701;81;20953;-58
2023/01/07 07:28:37;;;;;;;14.25;6.45;;;;;;;-3.27;100.00;101366.00;1752443;81;21196;-63
2023/01/07 07:31:05;;;;;;;16.87;8.58;;;;;;;-3.23;98.09;101370.89;1752868;81;21064;-62
2023/01/07 07:33:33;;;;;;;9.58;4.55;;;;;;;-3.31;94.52;101370.85;1753024;81;21033;-61
2023/01/07 07:36:01;;;;;;;14.93;7.42;;;;;;;-3.24;90.17;101374.34;1752675;81;21213;-62
2023/01/07 07:38:29;;;;;;;11.03;4.85;;;;;;;-3.19;91.43;101381.34;1752507;81;21022;-66
2023/01/07 07:40:56;;;;;;;12.75;5.35;;;;;;;-3.15;93.37;101390.13;1752463;81;21061;-62
2023/01/07 07:43:23;;;;;;;9.25;4.20;;;;;;;-3.05;100.00;101384.56;1752587;81;21173;-63
2023/01/07 07:45:50;;;;;;;17.00;7.53;;;;;;;-2.97;87.28;101390.60;1752897;81;20967;-61
2023/01/07 07:48:18;;;;;;;11.00;4.62;;;;;;;-3.17;88.99;101396.59;1752363;81;22344;-61
2023/01/07 07:50:51;;;;;;;9.70;4.75;;;;;;;-3.32;76.81;101405.72;1752944;81;20997;-64
2023/01/07 07:53:19;;;;;;;8.78;4.37;;;;;;;-3.61;76.58;101403.57;1724145;81;21032;-62
2023/01/07 07:55:46;;;;;;;8.38;4.30;;;;;;;-3.82;69.50;101399.75;1752945;81;20903;-70
2023/01/07 07:58:13;;;;;;;7.92;4.05;;;;;;;-4.12;78.53;101408.62;1753027;81;20934;-62
2023/01/07 08:00:40;;;;;;;11.57;4.85;;;;;;;-4.26;74.27;101408.70;1752456;81;21319;-62
2023/01/07 08:03:08;;;;;;;9.05;4.47;;;;;;;-4.37;85.80;101403.65;1753255;81;21327;-59
2023/01/07 08:05:41;;;;;;;10.50;5.12;;;;;;;-4.18;88.39;101402.87;1753236;81;21567;-70
2023/01/07 08:08:11;;;;;;;9.58;4.20;;;;;;;-4.21;80.66;101400.88;1753100;81;21057;-62
2023/01/07 08:10:39;;;;;;;10.23;3.90;;;;;;;-4.42;85.07;101407.20;1752506;81;20978;-61
2023/01/07 08:13:08;;;;;;;9.70;4.30;;;;;;;-4.50;77.87;101405.84;1752590;81;21260;-58
2023/01/07 08:15:36;;;;;;;9.43;4.45;;;;;;;-4.72;83.71;101404.09;1753070;81;21488;-61
2023/01/07 08:18:06;;;;;;;10.48;5.37;;;;;;;-4.74;88.25;101405.86;1752567;81;21114;-59
2023/01/07 08:20:35;;;;;;;11.12;4.97;;;;;;;-4.69;89.10;101402.72;1752544;81;21507;-63
2023/01/07 08:23:02;;;;;;;11.97;4.90;;;;;;;-4.60;91.48;101401.98;1753519;81;21283;-59
2023/01/07 08:25:30;;;;;;;10.23;4.22;;;;;;;-4.67;85.59;101402.20;1741594;81;21254;-61
2023/01/07 08:27:57;;;;;;;9.10;4.08;;;;;;;-5.04;83.68;101401.89;1732572;82;21027;-59
2023/01/07 08:30:25;;;;;;;9.05;4.70;;;;;;;-5.46;76.79;101404.60;1732863;82;21097;-65
2023/01/07 08:32:53;;;;;;;8.93;4.50;;;;;;;-5.98;73.74;101396.67;1732771;82;21436;-59
2023/01/07 08:35:20;;;;;;;20.92;10.00;;;;;;;-6.15;84.94;101400.55;1733342;82;21571;-58
2023/01/07 08:37:48;;;;;;;14.70;6.80;;;;;;;-6.01;95.26;101399.30;1732889;82;21218;-68
2023/01/07 08:40:16;;;;;;;9.93;4.33;;;;;;;-5.69;100.00;101393.95;1732305;82;21077;-70
2023/01/07 08:42:43;;;;;;;9.50;5.10;;;;;;;-5.41;100.00;101395.58;1732315;82;21278;-60
2023/01/07 08:45:11;;;;;;;8.55;4.10;;;;;;;-5.15;100.00;101394.67;1733065;82;21277;-59
2023/01/07 08:47:39;;;;;;;9.50;4.37;;;;;;;-5.02;100.00;101395.05;1733473;82;20971;-70
2023/01/07 08:50:07;;;;;;;8.98;4.33;;;;;;;-5.27;100.00;101395.91;1732697;82;21229;-59
2023/01/07 08:52:34;;;;;;;12.70;5.83;;;;;;;-5.45;96.86;101395.30;1732705;82;20986;-59
2023/01/07 08:55:01;;;;;;;7.65;4.37;;;;;;;-5.45;100.00;101392.76;1733280;82;20987;-59
2023/01/07 08:57:29;;;;;;;9.08;4.45;;;;;;;-5.36;100.00;101394.97;1733381;82;20884;-59
2023/01/07 08:59:56;;;;;;;10.23;4.70;;;;;;;-5.56;100.00;101391.84;1733097;82;20888;-73
2023/01/07 09:02:23;;;;;;;8.88;3.92;;;;;;;-5.83;100.00;101388.52;1733303;82;21172;-60
2023/01/07 09:04:50;;;;;;;10.23;5.08;;;;;;;-5.98;98.47;101390.32;1733234;82;21230;-61
2023/01/07 09:07:19;;;;;;;8.53;4.25;;;;;;;-6.15;100.00;101398.02;1733122;82;21039;-62
2023/01/07 09:09:46;;;;;;;12.47;5.22;;;;;;;-6.12;100.00;101392.84;1732719;82;20876;-63
2023/01/07 09:12:13;;;;;;;11.48;5.53;;;;;;;-6.17;100.00;101386.27;1732599;82;21428;-65
2023/01/07 09:14:40;;;;;;;9.60;4.20;;;;;;;-6.03;100.00;101384.55;1732710;82;21126;-63
2023/01/07 09:17:08;;;;;;;8.70;4.20;;;;;;;-5.80;100.00;101378.69;1733140;82;21453;-64
2023/01/07 09:19:35;;;;;;;8.65;4.33;;;;;;;-5.51;100.00;101379.81;1733231;82;21576;-71
2023/01/07 09:22:04;;;;;;;10.53;4.50;;;;;;;-5.08;100.00;101383.81;1732479;82;21038;-69
2023/01/07 09:24:32;;;;;;;11.40;4.80;;;;;;;-4.78;100.00;101389.05;1733771;80;21394;-62
2023/01/07 09:26:59;;;;;;;14.93;6.33;;;;;;;-4.61;100.00;101387.61;1752985;81;22092;-61
2023/01/07 09:29:26;;;;;;;11.53;4.50;;;;;;;-4.71;100.00;101390.48;1753174;81;21010;-62
2023/01/07 09:31:54;;;;;;;11.78;4.80;;;;;;;-4.92;100.00;101382.40;1752544;81;21428;-64
2023/01/07 09:34:21;;;;;;;8.90;4.10;;;;;;;-4.95;100.00;101388.86;1752518;81;22120;-62
2023/01/07 09:36:48;;;;;;;8.43;4.20;;;;;;;-5.06;100.00;101384.61;1753196;81;20938;-62
2023/01/07 09:39:16;;;;;;;11.12;4.65;;;;;;;-5.21;100.00;101385.53;1753145;81;21315;-61
2023/01/07 09:42:25;;;;;;;8.05;4.08;;;;;;;-5.21;100.00;101382.16;1752539;81;20918;-62
2023/01/07 09:45:18;;;;;;;9.70;4.58;;;;;;;-5.21;100.00;101388.52;1749045;81;21029;-61
2023/01/07 09:47:51;;;;;;;9.70;4.78;;;;;;;-5.17;100.00;101387.08;1752934;81;21431;-60
2023/01/07 09:50:32;;;;;;;9.73;4.35;;;;;;;-5.22;100.00;101386.42;1752922;81;20983;-61
2023/01/07 09:53:01;;;;;;;9.55;3.90;;;;;;;-5.31;100.00;101381.65;1752565;81;22480;-62
2023/01/07 09:55:37;;;;;;;10.70;4.28;;;;;;;-5.38;100.00;101382.74;1752627;81;21397;-61
2023/01/07 09:58:04;;;;;;;11.12;4.80;;;;;;;-5.32;100.00;101383.81;1753174;81;20914;-62
2023/01/07 10:00:33;;;;;;;8.18;4.05;;;;;;;-5.26;100.00;101384.05;1752716;81;20962;-62
2023/01/07 10:03:37;;;;;;;9.98;4.58;;;;;;;-5.16;100.00;101385.36;1752745;81;21235;-59
2023/01/07 10:06:45;;;;;;;8.18;3.90;;;;;;;-5.02;100.00;101383.61;1752938;81;21315;-67
2023/01/07 10:09:43;;;;;;;9.20;4.58;;;;;;;-5.15;100.00;101389.59;1752798;81;20919;-59
2023/01/07 10:12:31;;;;;;;10.10;4.53;;;;;;;-5.20;100.00;101389.72;1753423;81;20978;-58
2023/01/07 10:15:23;;;;;;;7.65;3.83;;;;;;;-4.95;100.00;101383.77;1752530;81;21033;-66
2023/01/07 10:17:58;;;;;;;10.38;4.20;;;;;;;-4.74;100.00;101386.78;1753348;81;20855;-58
2023/01/07 10:21:09;;;;;;;8.15;3.30;;;;;;;-4.66;100.00;101391.58;1752864;81;21141;-60
2023/01/07 10:23:45;;;;;;;8.60;3.50;;;;;;;-4.74;100.00;101389.77;1752944;81;20986;-65
2023/01/07 10:26:29;;;;;;;8.55;4.25;;;;;;;-5.23;98.77;101392.41;1719691;82;21431;-61
2023/01/07 10:29:08;;;;;;;8.13;3.95;;;;;;;-5.63;100.00;101393.75;1731167;82;21113;-59
2023/01/07 10:31:35;;;;;;;7.90;3.47;;;;;;;-5.66;100.00;101387.50;1732261;82;21914;-65
2023/01/07 10:34:14;;;;;;;9.73;3.67;;;;;;;-5.52;100.00;101392.58;1717163;82;21249;-59
2023/01/07 10:36:56;;;;;;;8.33;3.83;;;;;;;-5.38;100.00;101390.36;1716251;82;20895;-67
2023/01/07 10:39:56;;;;;;;8.93;4.17;;;;;;;-5.35;100.00;101386.90;1732374;82;21590;-62
2023/01/07 10:42:43;;;;;;;8.60;4.67;;;;;;;-5.39;100.00;101391.25;1731605;82;20967;-58
2023/01/07 10:46:03;;;;;;;9.00;3.90;;;;;;;-5.30;100.00;101388.41;1733527;82;20872;-62
2023/01/07 10:48:36;;;;;;;8.48;3.92;;;;;;;-5.30;100.00;101390.09;1733440;82;21265;-58
2023/01/07 10:51:38;;;;;;;8.43;4.45;;;;;;;-5.26;100.00;101391.67;1733073;82;21481;-68
2023/01/07 10:54:44;;;;;;;10.03;5.00;;;;;;;-5.19;100.00;101391.41;1733336;82;21063;-61
2023/01/07 10:57:23;;;;;;;11.88;5.95;;;;;;;-5.20;100.00;101389.72;1732847;82;38757;-60
2023/01/07 10:59:52;;;;;;;9.80;4.05;;;;;;;-5.23;100.00;101386.45;1731635;82;20976;-69
2023/01/07 11:02:21;;;;;;;8.08;3.67;;;;;;;-5.16;100.00;101382.82;1732819;82;21246;-61
2023/01/07 11:04:48;;;;;;;15.15;7.17;;;;;;;-5.33;98.89;101382.16;1732212;82;20957;-60
2023/01/07 11:07:29;;;;;;;13.60;5.08;;;;;;;-5.35;100.00;101374.19;1733254;82;20987;-59
2023/01/07 11:10:01;;;;;;;8.90;4.10;;;;;;;-5.33;100.00;101381.34;1731932;82;20908;-59
2023/01/07 11:12:51;;;;;;;8.13;4.25;;;;;;;-5.43;96.95;101383.35;1732410;82;24341;-65
2023/01/07 11:15:29;;;;;;;9.30;4.00;;;;;;;-5.63;93.78;101383.59;1732909;82;21161;-61
2023/01/07 11:18:01;;;;;;;13.35;6.55;;;;;;;-5.81;100.00;101389.28;1732210;82;20825;-64
2023/01/07 11:20:50;;;;;;;9.95;3.52;;;;;;;-5.81;100.00;101392.27;1733228;82;21289;-59
2023/01/07 11:23:39;;;;;;;9.25;3.60;;;;;;;-5.80;100.00;101390.94;1732716;82;21073;-62
2023/01/07 11:26:10;;;;;;;10.35;4.95;;;;;;;-5.73;100.00;101398.74;1722462;82;21060;-60
2023/01/07 11:28:59;;;;;;;8.48;4.30;;;;;;;-5.63;100.00;101400.11;1707153;83;21887;-60
2023/01/07 11:31:52;;;;;;;9.50;4.25;;;;;;;-5.59;100.00;101394.93;1706948;83;21592;-58
2023/01/07 11:34:38;;;;;;;9.45;3.80;;;;;;;-5.69;100.00;101403.28;1668232;83;21501;-62
2023/01/07 11:37:08;;;;;;;9.65;4.03;;;;;;;-5.71;99.61;101390.65;1695039;83;21539;-59